• Join FlightAware (Why Join?)
  • Login
  • US Flag 
12:39AM EST


 

Airport Tracker/Info


-or-


 

Live Flight TrackerFlight Track Log ✈ ASQ5738 ✈ 22-Aug-2013 ✈ KALB - KIAD

Flight Track Log - Related Links

Times and Time Zones

All times are in EDT time to prevent confusion due to time zone crossing. See the ASQ5738 flight status page for this flight to view local times or setup timezone preferences in your user account.

Time Position Orientation Groundspeed Altitude Reporting Facility
EDT Latitude Longitude Course Direction KTS MPH feet Rate Location/Type
10:11AM 42.7503 -73.8283 220° Southwest 155 178 1,100  Level Boston Center
10:12AM 42.7456 -73.8933 264° West 185 213 2,900 1,980 Climbing Boston Center
10:13AM 42.7478 -74.0319 271° West 270 311 6,300 2,580 Climbing Boston Center
10:14AM 42.7333 -74.2951 270° West  Level FlightAware Approximate
10:14AM 42.7108 -74.1269 242° Southwest 268 308 9,500  Level Boston Center
10:15AM 42.6723 -74.3834 220° Southwest  Level FlightAware Approximate
10:15AM 42.6700 -74.2161 238° Southwest 268 308 11,500  Level Boston Center
10:16AM 42.6022 -74.4622 220° Southwest  Level FlightAware Approximate
10:16AM 42.6183 -74.3108 233° Southwest 303 349 12,800  Level Boston Center
10:17AM 42.5892 -74.4311 252° West 323 372 14,000 1,320 Climbing Boston Center
10:18AM 42.5639 -74.5600 255° West 355 409 15,500 1,320 Climbing Boston Center
10:19AM 42.5431 -74.6775 257° West 360 414 16,700 1,140 Climbing Boston Center
10:20AM 42.5194 -74.8119 257° West 360 414 17,800 1,140 Climbing Boston Center
10:21AM 42.4978 -74.9436 257° West 360 414 19,100 1,140 Climbing Boston Center
10:22AM 42.4761 -75.0806 258° West 371 427 20,200 1,080 Climbing Boston Center
10:23AM 42.4228 -75.2133 241° Southwest 371 427 21,300 1,020 Climbing Boston Center
10:24AM 42.3617 -75.3231 233° Southwest 366 421 22,300 1,080 Climbing Boston Center
10:25AM 42.3044 -75.4383 236° Southwest 373 429 23,500 1,080 Climbing Boston Center
10:27AM 42.1983 -75.6358 234° Southwest 363 418 25,500 840 Climbing New York Center
10:28AM 42.1375 -75.7489 234° Southwest 368 423 26,000 240 Climbing New York Center
10:29AM 42.0786 -75.8644 236° Southwest 374 430 26,000  Level New York Center
10:30AM 42.0169 -75.9853 236° Southwest 384 442 26,000  Level New York Center
10:31AM 41.9533 -76.1058 235° Southwest 394 453 26,000  Level New York Center
10:32AM 41.8872 -76.2314 235° Southwest 407 468 26,000  Level New York Center
10:33AM 41.8214 -76.3542 234° Southwest 413 475 26,000  Level New York Center
10:34AM 41.7550 -76.4792 235° Southwest 413 475 26,000  Level New York Center
10:35AM 41.6864 -76.6039 234° Southwest 413 475 26,000  Level New York Center
10:36AM 41.6111 -76.7361 233° Southwest 413 475 26,000  Level New York Center
10:37AM 41.5442 -76.8658 235° Southwest 413 475 26,000  Level New York Center
10:38AM 41.4772 -76.9900 234° Southwest 418 481 26,000  Level New York Center
10:39AM 41.4036 -77.1217 233° Southwest 425 489 26,000 -180 Level New York Center
10:40AM 41.3083 -77.1900 208° Southwest 409 471 25,700 -660 Descending New York Center
10:41AM 41.1894 -77.1925 181° South 401 461 24,700 -1,020 Descending New York Center
10:42AM 41.0706 -77.1950 181° South 406 467 23,700 -1,020 Descending New York Center
10:43AM 40.9472 -77.1997 182° South 435 501 22,700 -1,020 Descending New York Center
10:44AM 40.8261 -77.2022 181° South 440 506 21,700 -900 Descending New York Center
10:45AM 40.7075 -77.2019 180° South 440 506 21,000 -840 Descending New York Center
10:46AM 40.5906 -77.2075 182° South 435 501 20,100 -900 Descending New York Center
10:47AM 40.4986 -77.2097 181° South 425 489 19,300 -1,020 Descending New York Center
10:49AM 40.2833 -77.2167 181° South 397 457 17,400 -1,080 Descending Potomac TRACON
10:50AM 40.1833 -77.2167 180° South 385 443 16,400 -1,020 Descending Potomac TRACON
10:51AM 40.0833 -77.2167 180° South 336 387 15,400 -1,020 Descending Potomac TRACON
10:52AM 39.9833 -77.2167 180° South 344 396 14,400 -1,200 Descending Potomac TRACON
10:53AM 39.9000 -77.2333 189° South 321 369 13,100 -1,320 Descending Potomac TRACON
10:54AM 39.8167 -77.2667 197° South 294 338 11,800 -1,260 Descending Potomac TRACON
10:55AM 39.7333 -77.3000 197° South 299 344 10,600 -900 Descending Potomac TRACON
10:56AM 39.6667 -77.3333 201° Southwest 304 350 10,000 -900 Descending Potomac TRACON
10:57AM 39.5833 -77.3333 180° South 286 329 8,900 -1,320 Descending Potomac TRACON
10:58AM 39.5000 -77.3333 180° South 292 336 7,500 -1,560 Descending Potomac TRACON
10:59AM 39.4333 -77.3333 180° South 284 327 6,000 -780 Descending Potomac TRACON
11:00AM 39.3500 -77.3500 189° South 288 331 6,000 -240 Level Potomac TRACON
11:01AM 39.2667 -77.3500 180° South 280 322 5,600 -540 Descending Potomac TRACON
11:02AM 39.1833 -77.3500 180° South 278 320 5,000 -540 Descending Potomac TRACON
11:03AM 39.1167 -77.3500 180° South 276 318 4,600 -540 Descending Potomac TRACON
11:04AM 39.0333 -77.3500 180° South 276 318 4,000 -660 Descending Potomac TRACON
11:05AM 38.9667 -77.3500 180° South 280 322 3,400 -540 Descending Potomac TRACON
11:06AM 38.8833 -77.3500 180° South 270 311 3,000 -480 Descending Potomac TRACON
11:07AM 38.8167 -77.3667 191° South 242 278 2,500 -540 Descending Potomac TRACON
11:08AM 38.8000 -77.4167 247° West 233 268 2,000 -300 Descending Potomac TRACON
11:09AM 38.8500 -77.4333 345° North 176 203 1,900 -480 Descending Potomac TRACON
11:09AM 38.8833 -77.4333 360° North 144 166 1,100 -900 Descending Potomac TRACON